createdAt,value
2022-08-11T00:00:52.225Z,0.60
2022-08-11T00:02:54.898Z,0.40
2022-08-11T00:05:01.253Z,0.75
2022-08-11T00:07:05.046Z,0.60
2022-08-11T00:09:18.500Z,0.75
2022-08-11T00:11:21.220Z,0.40
2022-08-11T00:13:32.188Z,0.50
2022-08-11T00:15:44.338Z,0.90
2022-08-11T00:17:47.558Z,0.45
2022-08-11T00:20:15.133Z,0.75
2022-08-11T00:22:21.055Z,0.50
2022-08-11T00:24:24.479Z,0.60
2022-08-11T00:26:28.149Z,0.50
2022-08-11T00:28:32.253Z,0.43
2022-08-11T00:30:40.919Z,0.50
2022-08-11T00:32:45.063Z,1.00
2022-08-11T00:34:48.145Z,0.40
2022-08-11T00:37:10.349Z,0.52
2022-08-11T00:39:13.801Z,0.75
2022-08-11T00:41:18.520Z,0.60
2022-08-11T00:43:29.835Z,0.40
2022-08-11T00:45:42.327Z,0.68
2022-08-11T00:47:55.762Z,0.50
2022-08-11T00:50:36.228Z,0.93
2022-08-11T00:53:08.124Z,0.65
2022-08-11T00:55:30.838Z,0.87
2022-08-11T01:00:13.349Z,0.52
2022-08-11T01:02:42.044Z,0.80
2022-08-11T01:04:46.558Z,0.38
2022-08-11T01:07:12.664Z,0.50
2022-08-11T01:09:32.955Z,0.57
2022-08-11T01:12:03.970Z,0.70
2022-08-11T01:14:34.510Z,0.63
2022-08-11T01:16:51.822Z,0.60
2022-08-11T01:19:14.212Z,0.60
2022-08-11T01:21:53.816Z,0.68
2022-08-11T01:24:27.086Z,0.68
2022-08-11T01:26:37.563Z,0.82
2022-08-11T01:29:15.845Z,0.77
2022-08-11T01:31:42.204Z,0.60
2022-08-11T01:34:02.555Z,0.50
2022-08-11T01:36:32.084Z,0.63
2022-08-11T01:38:58.092Z,0.60
2022-08-11T01:41:47.617Z,0.85
2022-08-11T01:44:40.232Z,1.00
2022-08-11T01:46:57.714Z,0.80
2022-08-11T01:50:01.052Z,0.80
2022-08-11T01:52:15.155Z,0.60
2022-08-11T01:54:27.277Z,0.80
2022-08-11T01:56:50.288Z,0.68
2022-08-11T01:59:13.381Z,0.77
2022-08-11T02:01:37.359Z,0.60
2022-08-11T02:04:03.276Z,0.70
2022-08-11T02:06:30.874Z,0.70
2022-08-11T02:08:52.024Z,1.02
2022-08-11T02:11:31.085Z,0.68
2022-08-11T02:13:52.185Z,0.60
2022-08-11T02:16:22.826Z,1.02
2022-08-11T02:18:52.750Z,0.68
2022-08-11T02:21:24.768Z,0.57
2022-08-11T02:23:59.651Z,0.80
2022-08-11T02:26:33.255Z,0.90
2022-08-11T02:28:46.597Z,1.08
2022-08-11T02:32:15.860Z,0.70
2022-08-11T02:35:00.669Z,0.85
2022-08-11T02:37:31.781Z,0.88
2022-08-11T02:39:47.720Z,0.73
2022-08-11T02:42:32.458Z,0.80
2022-08-11T02:45:11.882Z,0.75
2022-08-11T02:47:38.290Z,0.70
2022-08-11T02:50:02.641Z,0.68
2022-08-11T02:52:45.372Z,0.80
2022-08-11T02:55:08.863Z,0.82
2022-08-11T02:57:22.574Z,0.93
2022-08-11T02:59:46.348Z,1.02
2022-08-11T03:02:32.202Z,0.90
2022-08-11T03:04:49.914Z,0.90
2022-08-11T03:07:46.801Z,1.45
2022-08-11T03:10:00.311Z,0.93
2022-08-11T03:12:42.651Z,0.90
2022-08-11T03:15:20.388Z,1.50
2022-08-11T03:17:32.483Z,1.00
2022-08-11T03:19:37.234Z,1.13
2022-08-11T03:22:02.796Z,1.20
2022-08-11T03:24:33.638Z,1.10
2022-08-11T03:27:03.128Z,1.48
2022-08-11T03:29:24.938Z,0.70
2022-08-11T03:31:30.084Z,0.98
2022-08-11T03:34:05.530Z,1.13
2022-08-11T03:36:25.752Z,1.80
2022-08-11T03:38:34.190Z,0.95
2022-08-11T03:42:01.203Z,1.10
2022-08-11T03:43:58.454Z,1.13
2022-08-11T03:46:12.401Z,1.75
2022-08-11T03:48:22.994Z,1.70
2022-08-11T03:50:51.899Z,0.90
2022-08-11T03:53:14.985Z,1.67
2022-08-11T03:55:41.779Z,2.00
2022-08-11T03:58:09.408Z,1.25
2022-08-11T04:00:43.905Z,1.48
2022-08-11T04:03:44.243Z,1.42
2022-08-11T04:05:45.954Z,1.83
2022-08-11T04:08:04.143Z,2.17
2022-08-11T04:10:17.959Z,1.40
2022-08-11T04:12:47.874Z,1.40
2022-08-11T04:15:27.491Z,1.75
2022-08-11T04:17:35.572Z,2.25
2022-08-11T04:20:09.118Z,1.60
2022-08-11T04:22:44.077Z,2.45
2022-08-11T04:25:18.036Z,1.92
2022-08-11T04:27:41.713Z,2.05
2022-08-11T04:30:09.014Z,1.88
2022-08-11T04:32:28.559Z,1.60
2022-08-11T04:34:58.160Z,1.77
2022-08-11T04:37:27.363Z,1.38
2022-08-11T04:39:54.523Z,2.20
2022-08-11T04:43:09.913Z,1.40
2022-08-11T04:45:20.870Z,1.33
2022-08-11T04:48:21.977Z,2.05
2022-08-11T04:51:16.972Z,1.90
2022-08-11T04:53:47.651Z,1.85
2022-08-11T04:56:37.056Z,1.80
2022-08-11T04:59:03.561Z,1.88
2022-08-11T05:01:43.120Z,1.85
2022-08-11T05:04:51.846Z,2.03
2022-08-11T05:06:53.531Z,1.75
2022-08-11T05:09:16.235Z,1.42
2022-08-11T05:11:24.069Z,1.88
2022-08-11T05:13:52.911Z,2.40
2022-08-11T05:16:29.023Z,2.42
2022-08-11T05:18:52.003Z,1.60
2022-08-11T05:21:16.228Z,1.88
2022-08-11T05:23:39.964Z,2.58
2022-08-11T05:26:42.906Z,1.90
2022-08-11T05:29:19.857Z,2.42
2022-08-11T05:31:51.204Z,2.35
2022-08-11T05:34:18.520Z,2.65
2022-08-11T05:36:45.041Z,3.10
2022-08-11T05:39:18.077Z,2.33
2022-08-11T05:41:41.701Z,3.67
2022-08-11T05:44:21.542Z,3.65
2022-08-11T05:46:45.272Z,3.38
2022-08-11T05:49:06.529Z,2.97
2022-08-11T05:51:30.499Z,3.00
2022-08-11T05:53:52.183Z,3.45
2022-08-11T05:56:12.926Z,3.45
2022-08-11T05:58:15.420Z,3.58
2022-08-11T06:00:18.690Z,3.70
2022-08-11T06:02:20.714Z,3.40
2022-08-11T06:04:25.387Z,3.40
2022-08-11T06:06:29.148Z,3.63
2022-08-11T06:08:37.913Z,3.78
2022-08-11T06:10:48.747Z,3.28
2022-08-11T06:13:07.713Z,3.72
2022-08-11T06:15:17.510Z,3.53
2022-08-11T06:17:25.157Z,3.95
2022-08-11T06:19:40.206Z,4.93
2022-08-11T06:21:47.037Z,3.65
2022-08-11T06:23:50.340Z,4.53
2022-08-11T06:25:59.097Z,4.22
2022-08-11T06:28:11.004Z,4.50
2022-08-11T06:30:13.995Z,3.63
2022-08-11T06:32:16.579Z,4.10
2022-08-11T06:34:52.908Z,4.30
2022-08-11T06:37:20.343Z,4.03
2022-08-11T06:40:02.348Z,3.47
2022-08-11T06:42:09.574Z,4.32
2022-08-11T06:44:14.011Z,4.80
2022-08-11T06:46:28.386Z,3.92
2022-08-11T06:48:32.836Z,3.38
2022-08-11T06:50:53.884Z,3.08
2022-08-11T06:52:56.155Z,3.30
2022-08-11T06:55:06.572Z,2.63
2022-08-11T06:57:33.030Z,2.67
2022-08-11T06:59:55.654Z,2.58
2022-08-11T07:04:11.111Z,2.28
2022-08-11T07:06:50.514Z,1.83
2022-08-11T07:09:35.296Z,2.55
2022-08-11T07:12:11.082Z,1.80
2022-08-11T07:14:38.608Z,1.75
2022-08-11T07:16:44.495Z,1.42
2022-08-11T07:19:05.981Z,1.23
2022-08-11T07:22:01.757Z,1.45
2022-08-11T07:24:34.492Z,1.30
2022-08-11T07:27:14.220Z,1.35
2022-08-11T07:29:16.625Z,1.42
2022-08-11T07:31:24.708Z,1.13
2022-08-11T07:34:08.308Z,1.25
2022-08-11T07:36:00.937Z,1.10
2022-08-11T07:38:07.311Z,1.13
2022-08-11T07:40:10.954Z,1.10
2022-08-11T07:42:15.563Z,1.10
2022-08-11T07:44:17.905Z,1.05
2022-08-11T07:46:40.146Z,1.20
2022-08-11T07:49:00.902Z,1.30
2022-08-11T07:51:22.052Z,1.30
2022-08-11T07:53:24.164Z,1.10
2022-08-11T07:55:50.858Z,1.15
2022-08-11T07:58:16.988Z,0.98
2022-08-11T08:00:40.500Z,0.90
2022-08-11T08:03:02.889Z,1.05
2022-08-11T08:05:25.763Z,1.35
2022-08-11T08:07:46.156Z,0.75
2022-08-11T08:10:10.049Z,0.93
2022-08-11T08:12:35.002Z,0.90
2022-08-11T08:14:56.212Z,1.02
2022-08-11T08:17:16.976Z,0.93
2022-08-11T08:19:21.352Z,1.10
2022-08-11T08:21:23.167Z,1.00
2022-08-11T08:23:34.061Z,0.93
2022-08-11T08:25:40.132Z,0.93
2022-08-11T08:27:43.639Z,1.00
2022-08-11T08:30:04.755Z,1.23
2022-08-11T08:32:08.858Z,1.30
2022-08-11T08:34:11.769Z,1.02
2022-08-11T08:36:16.895Z,1.05
2022-08-11T08:38:19.898Z,1.33
2022-08-11T08:40:21.857Z,1.17
2022-08-11T08:44:39.207Z,1.00
2022-08-11T08:46:50.536Z,0.80
2022-08-11T08:48:53.886Z,1.02
2022-08-11T08:51:22.824Z,1.20
2022-08-11T08:53:32.829Z,0.98
2022-08-11T08:55:34.876Z,0.88
2022-08-11T08:57:40.136Z,0.63
2022-08-11T08:59:48.878Z,0.80
2022-08-11T09:02:03.383Z,0.73
2022-08-11T09:04:13.542Z,0.50
2022-08-11T09:06:19.488Z,0.68
2022-08-11T09:08:25.089Z,0.50
2022-08-11T09:10:31.041Z,1.00
2022-08-11T09:12:35.730Z,0.82
2022-08-11T09:15:01.059Z,1.02
2022-08-11T09:17:02.938Z,0.40
2022-08-11T09:26:18.395Z,1.38
2022-08-11T09:28:22.612Z,1.00
2022-08-11T09:30:25.928Z,1.08
2022-08-11T09:32:29.399Z,0.70
2022-08-11T09:34:31.467Z,0.80
2022-08-11T09:36:52.071Z,0.60
2022-08-11T09:39:13.171Z,0.55
2022-08-11T09:44:04.647Z,0.40
2022-08-11T09:45:16.295Z,0.60
2022-08-11T09:46:08.776Z,0.70
2022-08-11T09:48:17.729Z,0.50
2022-08-11T09:50:19.838Z,0.63
2022-08-11T09:52:26.219Z,0.45
2022-08-11T09:54:28.201Z,0.65
2022-08-11T09:56:49.172Z,0.68
2022-08-11T09:58:51.097Z,0.90
2022-08-11T10:00:57.975Z,0.40
2022-08-11T10:03:02.669Z,0.47
2022-08-11T10:05:23.715Z,0.30
2022-08-11T10:07:26.050Z,0.50
2022-08-11T10:09:36.377Z,0.55
2022-08-11T10:11:41.778Z,0.50
2022-08-11T10:14:32.633Z,0.30
2022-08-11T10:16:34.645Z,0.60
2022-08-11T10:18:49.401Z,0.63
2022-08-11T10:21:02.161Z,0.40
2022-08-11T10:23:23.867Z,0.65
2022-08-11T10:25:44.507Z,0.70
2022-08-11T10:28:33.057Z,0.73
2022-08-11T10:30:30.215Z,0.70
2022-08-11T10:32:58.328Z,0.40
2022-08-11T10:35:02.793Z,0.30
2022-08-11T10:37:07.093Z,0.35
2022-08-11T10:39:22.009Z,0.40
2022-08-11T10:42:06.882Z,0.50
2022-08-11T10:44:10.528Z,0.40
2022-08-11T10:46:32.301Z,0.40
2022-08-11T10:48:38.110Z,0.40
2022-08-11T10:51:03.906Z,0.60
2022-08-11T10:53:27.156Z,0.52
2022-08-11T10:55:48.263Z,0.55
2022-08-11T10:58:08.595Z,0.60
2022-08-11T11:00:15.077Z,0.40
2022-08-11T11:02:18.896Z,0.50
2022-08-11T11:04:28.352Z,0.50
2022-08-11T11:06:48.622Z,0.40
2022-08-11T11:08:57.505Z,0.50
2022-08-11T11:11:04.511Z,0.22
2022-08-11T11:13:25.234Z,0.28
2022-08-11T11:15:48.650Z,0.35
2022-08-11T11:18:11.759Z,0.68
2022-08-11T11:20:36.418Z,0.30
2022-08-11T11:22:48.170Z,0.55
2022-08-11T11:25:11.229Z,0.40
2022-08-11T11:27:48.900Z,0.30
2022-08-11T11:30:11.830Z,0.43
2022-08-11T11:32:50.520Z,0.30
2022-08-11T11:35:26.887Z,0.40
2022-08-11T11:37:33.727Z,0.20
2022-08-11T11:39:39.837Z,0.20
2022-08-11T11:41:45.298Z,0.30
2022-08-11T11:43:48.335Z,0.32
2022-08-11T11:45:50.305Z,0.25
2022-08-11T11:47:54.467Z,0.30
2022-08-11T11:49:57.016Z,0.40
2022-08-11T11:52:01.653Z,0.30
2022-08-11T11:54:05.021Z,0.30
2022-08-11T11:56:07.587Z,0.20
2022-08-11T11:58:29.382Z,0.40
2022-08-11T12:00:52.041Z,0.30
2022-08-11T12:02:58.053Z,0.20
2022-08-11T12:05:02.061Z,0.40
2022-08-11T12:07:24.111Z,0.28
2022-08-11T12:09:26.220Z,0.20
2022-08-11T12:11:48.605Z,0.30
2022-08-11T12:13:53.126Z,0.30
2022-08-11T12:16:04.434Z,0.30
2022-08-11T12:18:18.614Z,0.30
2022-08-11T12:20:30.937Z,0.25
2022-08-11T12:22:56.484Z,0.32
2022-08-11T12:25:17.006Z,0.30
2022-08-11T12:27:24.976Z,0.32
2022-08-11T12:29:32.254Z,0.25
2022-08-11T12:31:38.504Z,0.20
2022-08-11T12:33:41.712Z,0.30
2022-08-11T12:36:00.695Z,0.30
2022-08-11T12:38:18.324Z,0.45
2022-08-11T12:41:15.976Z,0.30
2022-08-11T12:45:42.331Z,0.20
2022-08-11T12:48:58.640Z,0.20
2022-08-11T12:50:53.513Z,0.20
2022-08-11T12:52:57.184Z,0.30
2022-08-11T12:55:12.978Z,0.25
2022-08-11T12:57:38.339Z,0.32
2022-08-11T13:00:01.748Z,0.20
2022-08-11T13:02:22.939Z,0.20
2022-08-11T13:04:46.590Z,0.22
2022-08-11T13:06:52.824Z,0.28
2022-08-11T13:09:01.109Z,0.20
2022-08-11T13:11:23.040Z,0.20
2022-08-11T13:13:52.086Z,0.20
2022-08-11T13:15:49.880Z,0.30
2022-08-11T13:17:54.813Z,0.30
2022-08-11T13:20:00.638Z,0.20
2022-08-11T13:22:07.351Z,0.22
2022-08-11T13:24:09.677Z,0.20
2022-08-11T13:26:12.016Z,0.20
2022-08-11T13:28:14.386Z,0.20
2022-08-11T13:30:40.317Z,0.22
2022-08-11T13:32:48.021Z,0.20
2022-08-11T13:34:50.031Z,0.20
2022-08-11T13:36:54.275Z,0.30
2022-08-11T13:38:58.479Z,0.22
2022-08-11T13:41:00.891Z,0.30
2022-08-11T13:43:03.202Z,0.30
2022-08-11T13:45:07.486Z,0.30
2022-08-11T13:47:13.138Z,0.20
2022-08-11T13:49:17.400Z,0.20
2022-08-11T13:51:36.669Z,0.20
2022-08-11T13:53:39.077Z,0.20
2022-08-11T13:55:51.445Z,0.20
2022-08-11T13:58:08.234Z,0.20
2022-08-11T14:00:26.894Z,0.20
2022-08-11T14:02:31.861Z,0.20
2022-08-11T14:04:51.333Z,0.35
2022-08-11T14:06:55.219Z,0.38
2022-08-11T14:08:58.186Z,0.20
2022-08-11T14:12:22.704Z,0.20
2022-08-11T14:13:48.315Z,0.30
2022-08-11T14:15:52.293Z,0.20
2022-08-11T14:18:06.452Z,0.20
2022-08-11T14:20:38.187Z,0.30
2022-08-11T14:22:33.669Z,0.20
2022-08-11T14:24:41.259Z,0.20
2022-08-11T14:26:44.271Z,0.20
2022-08-11T14:28:48.015Z,0.20
2022-08-11T14:31:00.506Z,0.30
2022-08-11T14:33:04.963Z,0.50
2022-08-11T14:35:25.329Z,0.50
2022-08-11T14:37:29.106Z,0.32
2022-08-11T14:39:57.185Z,0.17
2022-08-11T14:42:25.869Z,0.32
2022-08-11T14:44:47.478Z,0.20
2022-08-11T14:47:05.671Z,0.30
2022-08-11T14:49:29.188Z,0.30
2022-08-11T14:51:31.646Z,0.30
2022-08-11T14:53:33.536Z,0.20
2022-08-11T14:56:02.959Z,0.20
2022-08-11T14:58:08.480Z,0.20
2022-08-11T15:00:15.747Z,0.35
2022-08-11T15:02:37.804Z,0.40
2022-08-11T15:04:40.122Z,0.38
2022-08-11T15:06:43.013Z,0.30
2022-08-11T15:08:57.163Z,0.25
2022-08-11T15:10:59.088Z,0.40
2022-08-11T15:13:01.196Z,0.20
2022-08-11T15:15:25.710Z,0.40
2022-08-11T15:17:39.381Z,0.20
2022-08-11T15:20:04.703Z,0.30
2022-08-11T15:22:45.067Z,0.20
2022-08-11T15:24:47.020Z,0.20
2022-08-11T15:27:09.374Z,0.20
2022-08-11T15:29:32.582Z,0.30
2022-08-11T15:31:56.094Z,0.20
2022-08-11T15:34:23.549Z,0.30
2022-08-11T15:36:45.948Z,0.20
2022-08-11T15:39:22.297Z,0.20
2022-08-11T15:41:58.654Z,0.25
2022-08-11T15:44:44.450Z,0.30
2022-08-11T15:46:52.497Z,0.30
2022-08-11T15:49:25.580Z,0.22
2022-08-11T15:52:02.212Z,0.20
2022-08-11T15:54:11.691Z,0.20
2022-08-11T15:56:16.829Z,0.22
2022-08-11T15:58:42.068Z,0.38
2022-08-11T16:01:08.849Z,0.30
2022-08-11T16:04:06.502Z,0.20
2022-08-11T16:05:55.493Z,0.20
2022-08-11T16:07:59.781Z,0.20
2022-08-11T16:10:09.562Z,0.25
2022-08-11T16:12:17.426Z,0.20
2022-08-11T16:14:40.129Z,0.30
2022-08-11T16:16:42.904Z,0.30
2022-08-11T16:18:57.682Z,0.40
2022-08-11T16:21:11.717Z,0.40
2022-08-11T16:23:34.435Z,0.20
2022-08-11T16:27:03.406Z,0.22
2022-08-11T16:28:06.507Z,0.30
2022-08-11T16:30:10.426Z,0.30
2022-08-11T16:32:21.701Z,0.30
2022-08-11T16:34:44.156Z,0.60
2022-08-11T16:39:09.012Z,0.30
2022-08-11T16:41:14.071Z,0.30
2022-08-11T16:43:37.028Z,0.20
2022-08-11T16:45:59.560Z,0.20
2022-08-11T16:48:36.244Z,0.20
2022-08-11T16:50:29.820Z,0.20
2022-08-11T16:52:31.593Z,0.50
2022-08-11T16:54:35.015Z,0.32
2022-08-11T16:56:43.329Z,0.25
2022-08-11T16:59:16.299Z,0.30
2022-08-11T17:01:28.565Z,0.30
2022-08-11T17:06:20.895Z,0.43
2022-08-11T17:08:57.258Z,0.30
2022-08-11T17:11:23.438Z,0.20
2022-08-11T17:13:42.439Z,0.40
2022-08-11T17:16:08.285Z,0.40
2022-08-11T17:18:37.874Z,0.22
2022-08-11T17:20:45.824Z,0.40
2022-08-11T17:23:08.748Z,0.40
2022-08-11T17:25:17.320Z,0.50
2022-08-11T17:27:21.241Z,0.28
2022-08-11T17:29:54.955Z,0.30
2022-08-11T17:32:28.005Z,0.30
2022-08-11T17:34:48.851Z,0.30
2022-08-11T17:36:53.455Z,0.33
2022-08-11T17:38:55.423Z,0.30
2022-08-11T17:41:23.587Z,0.30
2022-08-11T17:46:22.230Z,0.30
2022-08-11T17:50:56.452Z,0.40
2022-08-11T17:55:54.753Z,0.30
2022-08-11T17:58:16.846Z,0.52
2022-08-11T18:00:18.945Z,0.30
2022-08-11T18:02:49.851Z,0.40
2022-08-11T18:04:53.233Z,0.20
2022-08-11T18:06:55.783Z,0.30
2022-08-11T18:09:17.229Z,0.20
2022-08-11T18:12:06.810Z,0.38
2022-08-11T18:14:22.560Z,0.50
2022-08-11T18:16:42.992Z,0.30
2022-08-11T18:19:04.207Z,0.50
2022-08-11T18:21:29.227Z,0.45
2022-08-11T18:23:52.165Z,0.40
2022-08-11T18:26:17.255Z,0.30
2022-08-11T18:31:21.695Z,0.47
2022-08-11T18:34:06.421Z,0.43
2022-08-11T18:36:32.122Z,0.40
2022-08-11T18:38:52.384Z,0.50
2022-08-11T18:41:18.171Z,0.47
2022-08-11T18:43:44.552Z,0.57
2022-08-11T18:46:11.051Z,0.47
2022-08-11T18:51:30.865Z,0.40
2022-08-11T18:54:00.738Z,0.55
2022-08-11T18:56:21.859Z,0.63
2022-08-11T18:58:48.259Z,0.40
2022-08-11T19:03:49.280Z,0.40
2022-08-11T19:06:39.236Z,0.45
2022-08-11T19:14:34.678Z,0.50
2022-08-11T19:16:56.844Z,0.35
2022-08-11T19:19:18.295Z,0.40
2022-08-11T19:24:26.465Z,0.77
2022-08-11T19:26:48.345Z,0.38
2022-08-11T19:30:07.955Z,0.40
2022-08-11T19:31:57.523Z,0.50
2022-08-11T19:34:19.555Z,0.28
2022-08-11T19:36:42.766Z,0.70
2022-08-11T19:39:05.279Z,0.40
2022-08-11T19:41:52.336Z,0.47
2022-08-11T19:44:07.948Z,0.25
2022-08-11T19:46:29.676Z,0.40
2022-08-11T19:49:13.044Z,0.60
2022-08-11T19:51:43.378Z,0.68
2022-08-11T19:54:07.666Z,0.50
2022-08-11T19:56:29.572Z,0.30
2022-08-11T20:01:25.187Z,0.70
2022-08-11T20:03:46.555Z,0.32
2022-08-11T20:06:08.130Z,0.30
2022-08-11T20:08:29.185Z,0.50
2022-08-11T20:10:51.928Z,0.68
2022-08-11T20:15:59.795Z,1.02
2022-08-11T20:18:22.042Z,0.98
2022-08-11T20:23:12.437Z,0.75
2022-08-11T20:25:35.677Z,0.80
2022-08-11T20:28:09.469Z,1.10
2022-08-11T20:30:30.661Z,0.77
2022-08-11T20:32:52.947Z,2.08
2022-08-11T20:35:16.244Z,1.33
2022-08-11T20:37:37.619Z,0.93
2022-08-11T20:40:00.645Z,0.80
2022-08-11T20:42:23.643Z,0.52
2022-08-11T20:44:48.154Z,1.02
2022-08-11T20:47:12.959Z,0.90
2022-08-11T20:49:44.885Z,1.20
2022-08-11T20:52:12.272Z,1.90
2022-08-11T20:54:38.180Z,0.85
2022-08-11T20:57:04.961Z,1.02
2022-08-11T20:59:49.558Z,0.93
2022-08-11T21:02:18.163Z,0.90
2022-08-11T21:04:54.438Z,0.85
2022-08-11T21:07:23.590Z,0.75
2022-08-11T21:10:09.246Z,0.70
2022-08-11T21:14:55.873Z,0.60
2022-08-11T21:17:27.718Z,0.75
2022-08-11T21:19:59.893Z,0.75
2022-08-11T21:22:23.023Z,0.60
2022-08-11T21:24:48.901Z,0.68
2022-08-11T21:27:16.232Z,0.60
2022-08-11T21:29:44.327Z,0.93
2022-08-11T21:32:06.402Z,0.63
2022-08-11T21:34:28.965Z,0.52
2022-08-11T21:36:51.106Z,0.90
2022-08-11T21:39:12.335Z,0.63
2022-08-11T21:41:34.513Z,0.70
2022-08-11T21:43:59.767Z,1.05
2022-08-11T21:46:23.259Z,0.90
2022-08-11T21:48:47.367Z,0.65
2022-08-11T21:51:07.790Z,0.63
2022-08-11T21:53:28.899Z,0.90
2022-08-11T21:55:50.206Z,0.73
2022-08-11T21:58:12.131Z,0.70
2022-08-11T22:00:33.275Z,0.95
2022-08-11T22:02:54.726Z,0.90
2022-08-11T22:05:15.279Z,0.90
2022-08-11T22:07:39.540Z,0.80
2022-08-11T22:10:01.811Z,0.80
2022-08-11T22:12:45.197Z,0.60
2022-08-11T22:15:06.318Z,0.45
2022-08-11T22:17:26.597Z,1.15
2022-08-11T22:19:48.085Z,0.63
2022-08-11T22:22:09.205Z,0.57
2022-08-11T22:24:32.561Z,0.70
2022-08-11T22:26:54.547Z,0.98
2022-08-11T22:29:15.272Z,0.98
2022-08-11T22:31:36.360Z,1.17
2022-08-11T22:34:02.891Z,0.73
2022-08-11T22:36:36.208Z,0.93
2022-08-11T22:39:00.987Z,0.73
2022-08-11T22:41:21.517Z,0.60
2022-08-11T22:43:45.593Z,0.80
2022-08-11T22:46:06.108Z,0.80
2022-08-11T22:48:27.971Z,0.60
2022-08-11T22:50:49.730Z,0.63
2022-08-11T22:53:10.832Z,0.52
2022-08-11T22:55:32.338Z,1.40
2022-08-11T22:58:00.656Z,0.57
2022-08-11T23:00:23.467Z,0.68
2022-08-11T23:02:51.117Z,0.73
2022-08-11T23:05:15.141Z,0.40
2022-08-11T23:07:50.756Z,0.70
2022-08-11T23:10:12.587Z,1.15
2022-08-11T23:12:41.835Z,1.00
2022-08-11T23:15:08.952Z,0.70
2022-08-11T23:17:31.388Z,0.70
2022-08-11T23:20:00.340Z,0.88
2022-08-11T23:22:32.159Z,0.70
2022-08-11T23:25:17.792Z,0.77
2022-08-11T23:27:39.281Z,1.02
2022-08-11T23:30:03.656Z,0.85
2022-08-11T23:32:25.144Z,0.63
2022-08-11T23:35:04.112Z,0.55
2022-08-11T23:37:41.023Z,0.63
2022-08-11T23:40:01.399Z,0.80
2022-08-11T23:42:22.779Z,0.70
2022-08-11T23:44:44.766Z,0.73
2022-08-11T23:47:08.279Z,0.70
2022-08-11T23:49:29.351Z,0.68
2022-08-11T23:51:54.859Z,0.85
2022-08-11T23:54:16.543Z,0.70
2022-08-11T23:56:37.585Z,1.13
2022-08-11T23:58:58.141Z,0.57
